Kezdőlap
METAR-TAF:

METAR-TAF

Repülőterek :

Kunming, Kína

földrajzi szélesség: 25-01N, földrajzi hosszúság: 102-41E, magasság: 1892 m

Jelenlegi meteorológiai megfigyelések

A jelentés 40 perccel ezelõtt készült, 03:00 UTC
Kelet-északkeleti szél 10 kt
Hőmérséklet 21°C
Páratartalom 73%
Légköri nyomás 1021 hPa
Látótávolság 10 km, vagy több
Kevés felhő 2600 lábon

METAR: ZPPP 150300Z 06005MPS 9999 FEW026 21/16 Q1021 NOSIG

Idő: 11:40 (03:40 UTC)

Előrejelzés

A jelentés 8 órával és 37 perccel ezelõtt készült, 19:03 UTC
Az előrejelzés 15-én 00 óra UTC és 15-én 24 óra UTC között érvényes
Északkeleti szél 8 kt
Látótávolság 10 km, vagy több
Szórványos felhőzet 2600 lábon

TAF: ZPPP 141903Z 1500/1524 04004MPS 9999 SCT026 TX25/1508Z TN15/1523Z

Meteorológiai megfigyelések és előrejelzések több, mint 4000 repülőtéren (METAR és TAF jelentéseket).

A térképen piros és sárga pontok jelzik az elérhető meteorológiai állomásokat.

Mozgassa az egeret a pont fölött, hogy megjelenjen az állomás neve.

Azután kattintson az időjárási megfigyelések és előrejelzések megtekintéséhez.

A térkép megváltoztatása: kattintson a fekete keresztel jelölt zöld gombra ráközelítéshez, a vonallal jelölt zöld gombra távolításhoz, vagy a zöld nyilakra a szomszédos térképek eléréséhez.


METAR-TAF: